Mikonos, Greece

2:58 PM EET on February 11, 2016 (GMT +0200)
Mikonos | | Change Station
CLOSE
Current Station
Airport
Location: Mikonos,
Elevation: 404 ft
Nearby Weather Stations

Elev 404 ft 37.44 °N, 25.35 °E | Updated 1 hour ago

Clear
Clear
64 °F
Feels Like 64 °F
N
10
Wind Variable Wind from WSW

Today
High -- | Low -- °F
--% Chance of Precip.
Yesterday
High -- | Low -- °F
Precip. -- in
Pressure 29.89 in
Visibility -9999.0 miles
Clouds
Dew Point 55 °F
Humidity 73%
Rainfall 0.00 in
Snow Depth Not available.
7:13 AM 5:53 PM
Waxing Crescent, 11% visible
METAR LGMK 111150Z 24009KT CAVOK 18/13 Q1012
Pressure 29.89 in
Visibility -9999.0 miles
Clouds
Dew Point 55 °F
Humidity 73%
Rainfall 0.00 in
Snow Depth Not available.
7:13 AM 5:53 PM
Waxing Crescent, 11% visible
METAR LGMK 111150Z 24009KT CAVOK 18/13 Q1012

10-Day Weather Forecast

Almanac

Astronomy

Feb. 11, 2016 Rise Set
Actual Time
Civil Twilight
Nautical Twilight
Astronomical Twilight
Moon
Length of Visible Light
Length of Day
Tomorrow will be .
, % of the Moon is Illuminated

Today's Extremes

Country Highs Country Lows

Community

WunderPhotos

Upload Photos

1,892,037 photos uploaded!

WunderBlog® & News

Nearby

Air Quality

  Air Quality AQ Index Pollutant
Not available.

Snow Depth

Station Depth Elevation

Earthquake Activity

City Distance Mag. Time & Date
Minimum magnitude displayed is 2.5.

Coastal Water Temperatures

Place Temperature

Stations

Nearby Weather Stations

Station Location Temp. Windchill Dew Point Humidity Wind Precip. Elev Updated Type